LiveATC.Net - Listen to live air traffic control over the Internet! Contact for advertising information

ICAO: CYQM  IATA: YQM   Airport: Greater Moncton International Airport
City: Moncton   State/Province: New Brunswick
Country: Canada   Continent: North America
CYQM METAR Weather: CYQM 052100Z 15006KT 15SM FEW050 BKN220 15/09 A3013 RMK SC1CI7 SC TR SLP205
CYQM Flight Activity (FlightAware)
CYQM Gnd/Twr/Center/Misc
Feed Status: UP   Listeners: 2
Listen right in your browser - requires Flash (in browser, requires Flash)
Click here to listen with your own player (launches your MP3 player)
CYQM Gnd/Twr/Center/Misc Audio Archives
Moncton Center (FL280/below)124.400
Moncton Flight College123.350
Moncton Ground121.800
Moncton Tower120.800


Unauthorized use prohibited. See Terms of Service

Find LiveATC Audio Streams

Airport/ARTCC Code

(e.g., 124.400, 128.75)
Site-wide search

Browse LiveATC Feeds
LiveATC Coverage Map
Top 50 LiveATC Feeds
Bad Weather Areas

Offer a LiveATC Feed
Press Inquiries

LiveATC on iPhone
LiveATC on Android

LiveATC Mobile
(Mobile browser)

ATC Audio Archives
Interesting Recordings

LiveATC Forums

Home Page
Make a Donation
LiveATC Bookstore

Terms of Use
Privacy Policy

ATC/Radar Sites
U.S. ARTCC Freqs
Canadian Air Freqs


FAA Airport Status
Nat'l Airspace Status
Arrival Demand Charts

Server Software By:

Please make a donation to help us keep growing!